Terminal Aerodrome Forecast
Issued by NWS

Home | Current Version | Previous Version | Text Only | Print | Product List | Glossary On
Versions: 1 2 3 4 5 6 7 8 9 10 11 12 13 14 15 16 17 18 19 20 21 22 23 24 25 26 27 28 29 30
859
FTUS44 KFWD 262102 AAB
TAFFTW
TAF AMD
KFTW 262102Z 2621/2718 15016KT P6SM VCSH BKN070
     FM270000 16015G25KT P6SM VCTS BKN040CB
     FM270200 16016G26KT 5SM -TSRA OVC030CB
     FM270600 18016KT 6SM -SHRA OVC009
     FM271500 17014KT 6SM -SHRA OVC025=

USA.gov is the U.S. government's official web portal to all federal, state and local government web resources and services.